Terminal Aerodrome Forecast
Issued by NWS Louisville, KY

Home | Current Version | Previous Version | Text Only | Print | Product List | Glossary On
Versions: 1 2 3 4 5 6 7 8 9 10 11 12 13 14 15 16 17 18 19 20
000
FTUS43 KLMK 261700
TAFSDF
TAF
KSDF 261725Z 2618/2724 23011G17KT P6SM SCT050 SCT150
     FM270200 23010G15KT P6SM VCTS SCT020 BKN035CB OVC110
      TEMPO 2703/2705 30015G30KT 3SM -TSRA BKN025CB
     FM270500 20011KT P6SM VCTS BKN040CB
     FM271300 25015G21KT P6SM VCTS BKN040CB
     FM272100 29017G25KT P6SM BKN050=

USA.gov is the U.S. government's official web portal to all federal, state and local government web resources and services.